sensor_id;sensor_type;location;lat;lon;timestamp;P1;durP1;ratioP1;P2;durP2;ratioP2
66270;SDS011;53063;39.614;8.814;2023-01-01T00:01:06;22.60;;;9.95;;
66270;SDS011;53063;39.614;8.814;2023-01-01T00:03:33;23.70;;;9.98;;
66270;SDS011;53063;39.614;8.814;2023-01-01T00:06:03;24.63;;;10.18;;
66270;SDS011;53063;39.614;8.814;2023-01-01T00:08:34;25.13;;;11.15;;
66270;SDS011;53063;39.614;8.814;2023-01-01T00:11:06;23.55;;;10.90;;
66270;SDS011;53063;39.614;8.814;2023-01-01T00:13:33;26.10;;;11.77;;
66270;SDS011;53063;39.614;8.814;2023-01-01T00:16:19;32.78;;;13.45;;
66270;SDS011;53063;39.614;8.814;2023-01-01T00:18:44;31.48;;;13.02;;
66270;SDS011;53063;39.614;8.814;2023-01-01T00:21:11;30.38;;;14.50;;
66270;SDS011;53063;39.614;8.814;2023-01-01T00:23:38;30.42;;;13.07;;
66270;SDS011;53063;39.614;8.814;2023-01-01T00:26:08;25.08;;;12.90;;
66270;SDS011;53063;39.614;8.814;2023-01-01T00:28:39;25.55;;;14.18;;
66270;SDS011;53063;39.614;8.814;2023-01-01T00:31:15;24.60;;;13.60;;
66270;SDS011;53063;39.614;8.814;2023-01-01T00:33:44;29.95;;;12.82;;
66270;SDS011;53063;39.614;8.814;2023-01-01T00:36:14;28.30;;;13.05;;
66270;SDS011;53063;39.614;8.814;2023-01-01T00:38:42;27.08;;;13.48;;
66270;SDS011;53063;39.614;8.814;2023-01-01T00:41:08;32.03;;;13.88;;
66270;SDS011;53063;39.614;8.814;2023-01-01T00:43:35;30.85;;;14.38;;
66270;SDS011;53063;39.614;8.814;2023-01-01T00:46:01;25.35;;;13.63;;
66270;SDS011;53063;39.614;8.814;2023-01-01T00:48:29;32.22;;;13.80;;
66270;SDS011;53063;39.614;8.814;2023-01-01T00:50:54;28.27;;;13.82;;
66270;SDS011;53063;39.614;8.814;2023-01-01T00:53:20;33.45;;;15.20;;
66270;SDS011;53063;39.614;8.814;2023-01-01T00:55:47;29.35;;;14.27;;
66270;SDS011;53063;39.614;8.814;2023-01-01T00:58:15;33.25;;;14.10;;
66270;SDS011;53063;39.614;8.814;2023-01-01T01:00:42;28.45;;;12.55;;
66270;SDS011;53063;39.614;8.814;2023-01-01T01:03:09;34.60;;;12.10;;
66270;SDS011;53063;39.614;8.814;2023-01-01T01:08:27;23.65;;;12.05;;
66270;SDS011;53063;39.614;8.814;2023-01-01T01:10:54;24.08;;;11.70;;
66270;SDS011;53063;39.614;8.814;2023-01-01T01:13:27;27.08;;;9.82;;
66270;SDS011;53063;39.614;8.814;2023-01-01T01:15:53;28.65;;;10.05;;
66270;SDS011;53063;39.614;8.814;2023-01-01T01:18:19;25.73;;;8.68;;
66270;SDS011;53063;39.614;8.814;2023-01-01T01:20:49;24.85;;;9.13;;
66270;SDS011;53063;39.614;8.814;2023-01-01T01:23:16;21.27;;;9.27;;
66270;SDS011;53063;39.614;8.814;2023-01-01T01:25:42;22.90;;;8.85;;
66270;SDS011;53063;39.614;8.814;2023-01-01T01:28:08;18.23;;;8.02;;
66270;SDS011;53063;39.614;8.814;2023-01-01T01:30:36;16.55;;;7.72;;
66270;SDS011;53063;39.614;8.814;2023-01-01T01:33:02;20.65;;;7.68;;
66270;SDS011;53063;39.614;8.814;2023-01-01T01:35:28;20.70;;;7.45;;
66270;SDS011;53063;39.614;8.814;2023-01-01T01:37:54;21.10;;;8.10;;
66270;SDS011;53063;39.614;8.814;2023-01-01T01:40:20;19.92;;;6.75;;
66270;SDS011;53063;39.614;8.814;2023-01-01T01:42:47;15.68;;;7.05;;
66270;SDS011;53063;39.614;8.814;2023-01-01T01:45:15;14.30;;;6.38;;
66270;SDS011;53063;39.614;8.814;2023-01-01T01:47:45;14.73;;;6.70;;
66270;SDS011;53063;39.614;8.814;2023-01-01T01:53:08;18.83;;;7.68;;
66270;SDS011;53063;39.614;8.814;2023-01-01T01:55:35;18.52;;;7.32;;
66270;SDS011;53063;39.614;8.814;2023-01-01T01:58:05;18.75;;;7.10;;
66270;SDS011;53063;39.614;8.814;2023-01-01T02:00:33;17.67;;;8.82;;
66270;SDS011;53063;39.614;8.814;2023-01-01T02:03:01;27.95;;;12.73;;
66270;SDS011;53063;39.614;8.814;2023-01-01T02:05:49;17.80;;;8.70;;
66270;SDS011;53063;39.614;8.814;2023-01-01T02:08:16;16.25;;;8.18;;
66270;SDS011;53063;39.614;8.814;2023-01-01T02:10:43;28.42;;;9.48;;
66270;SDS011;53063;39.614;8.814;2023-01-01T02:13:09;22.17;;;10.25;;
66270;SDS011;53063;39.614;8.814;2023-01-01T02:15:39;26.27;;;10.00;;
66270;SDS011;53063;39.614;8.814;2023-01-01T02:18:23;25.85;;;11.00;;
66270;SDS011;53063;39.614;8.814;2023-01-01T02:31:10;32.65;;;11.80;;
66270;SDS011;53063;39.614;8.814;2023-01-01T02:33:42;22.17;;;10.93;;
66270;SDS011;53063;39.614;8.814;2023-01-01T02:36:10;26.50;;;11.25;;
66270;SDS011;53063;39.614;8.814;2023-01-01T02:38:39;21.50;;;10.10;;
66270;SDS011;53063;39.614;8.814;2023-01-01T02:41:13;21.13;;;10.15;;
66270;SDS011;53063;39.614;8.814;2023-01-01T02:43:44;18.65;;;8.55;;
66270;SDS011;53063;39.614;8.814;2023-01-01T02:46:10;20.83;;;9.32;;
66270;SDS011;53063;39.614;8.814;2023-01-01T02:48:41;19.80;;;8.80;;
66270;SDS011;53063;39.614;8.814;2023-01-01T02:54:04;32.00;;;11.73;;
66270;SDS011;53063;39.614;8.814;2023-01-01T02:56:44;24.05;;;9.38;;
66270;SDS011;53063;39.614;8.814;2023-01-01T03:05:38;25.98;;;10.18;;
66270;SDS011;53063;39.614;8.814;2023-01-01T03:11:20;29.83;;;10.95;;
66270;SDS011;53063;39.614;8.814;2023-01-01T03:16:27;26.92;;;9.07;;
66270;SDS011;53063;39.614;8.814;2023-01-01T03:19:09;27.35;;;8.35;;
66270;SDS011;53063;39.614;8.814;2023-01-01T03:24:17;40.90;;;8.53;;
66270;SDS011;53063;39.614;8.814;2023-01-01T03:26:52;24.10;;;7.20;;
66270;SDS011;53063;39.614;8.814;2023-01-01T03:29:21;33.30;;;7.32;;
66270;SDS011;53063;39.614;8.814;2023-01-01T03:31:49;24.48;;;7.45;;
66270;SDS011;53063;39.614;8.814;2023-01-01T03:34:21;28.38;;;8.98;;
66270;SDS011;53063;39.614;8.814;2023-01-01T03:36:53;40.60;;;8.77;;
66270;SDS011;53063;39.614;8.814;2023-01-01T03:39:36;24.27;;;7.97;;
66270;SDS011;53063;39.614;8.814;2023-01-01T03:45:05;21.35;;;6.38;;
66270;SDS011;53063;39.614;8.814;2023-01-01T03:47:34;23.45;;;7.35;;
66270;SDS011;53063;39.614;8.814;2023-01-01T03:50:01;21.52;;;7.88;;
66270;SDS011;53063;39.614;8.814;2023-01-01T03:52:30;23.27;;;7.80;;
66270;SDS011;53063;39.614;8.814;2023-01-01T04:00:11;24.20;;;8.68;;
66270;SDS011;53063;39.614;8.814;2023-01-01T04:03:08;21.73;;;7.03;;
66270;SDS011;53063;39.614;8.814;2023-01-01T04:05:42;20.58;;;6.90;;
66270;SDS011;53063;39.614;8.814;2023-01-01T04:08:08;18.95;;;6.93;;
66270;SDS011;53063;39.614;8.814;2023-01-01T04:10:36;20.85;;;6.78;;
66270;SDS011;53063;39.614;8.814;2023-01-01T04:13:07;19.35;;;7.72;;
66270;SDS011;53063;39.614;8.814;2023-01-01T04:15:33;18.02;;;7.32;;
66270;SDS011;53063;39.614;8.814;2023-01-01T04:18:00;16.33;;;7.13;;
66270;SDS011;53063;39.614;8.814;2023-01-01T04:20:26;26.10;;;7.63;;
66270;SDS011;53063;39.614;8.814;2023-01-01T04:22:56;22.30;;;7.57;;
66270;SDS011;53063;39.614;8.814;2023-01-01T04:27:51;15.68;;;7.30;;
66270;SDS011;53063;39.614;8.814;2023-01-01T04:30:17;20.15;;;7.20;;
66270;SDS011;53063;39.614;8.814;2023-01-01T04:32:43;21.70;;;7.88;;
66270;SDS011;53063;39.614;8.814;2023-01-01T04:35:10;23.80;;;7.32;;
66270;SDS011;53063;39.614;8.814;2023-01-01T04:37:37;17.92;;;6.68;;
66270;SDS011;53063;39.614;8.814;2023-01-01T04:40:04;22.05;;;7.63;;
66270;SDS011;53063;39.614;8.814;2023-01-01T04:42:31;17.02;;;6.50;;
66270;SDS011;53063;39.614;8.814;2023-01-01T04:44:57;20.70;;;7.28;;
66270;SDS011;53063;39.614;8.814;2023-01-01T04:47:23;20.73;;;6.88;;
66270;SDS011;53063;39.614;8.814;2023-01-01T04:49:51;20.40;;;7.22;;
66270;SDS011;53063;39.614;8.814;2023-01-01T04:52:17;21.23;;;7.10;;
66270;SDS011;53063;39.614;8.814;2023-01-01T04:54:43;22.02;;;7.40;;
66270;SDS011;53063;39.614;8.814;2023-01-01T04:57:09;23.95;;;8.30;;
66270;SDS011;53063;39.614;8.814;2023-01-01T04:59:35;22.98;;;8.05;;
66270;SDS011;53063;39.614;8.814;2023-01-01T05:02:01;20.05;;;8.38;;
66270;SDS011;53063;39.614;8.814;2023-01-01T05:04:27;19.23;;;7.57;;
66270;SDS011;53063;39.614;8.814;2023-01-01T05:06:53;19.00;;;7.82;;
66270;SDS011;53063;39.614;8.814;2023-01-01T05:09:20;22.70;;;7.82;;
66270;SDS011;53063;39.614;8.814;2023-01-01T05:11:47;14.40;;;6.75;;
66270;SDS011;53063;39.614;8.814;2023-01-01T05:14:13;18.13;;;7.13;;
66270;SDS011;53063;39.614;8.814;2023-01-01T05:16:38;18.45;;;7.53;;
66270;SDS011;53063;39.614;8.814;2023-01-01T05:19:05;21.40;;;8.32;;
66270;SDS011;53063;39.614;8.814;2023-01-01T05:21:36;18.85;;;8.30;;
66270;SDS011;53063;39.614;8.814;2023-01-01T05:24:04;18.00;;;7.40;;
66270;SDS011;53063;39.614;8.814;2023-01-01T05:26:33;19.77;;;7.97;;
66270;SDS011;53063;39.614;8.814;2023-01-01T05:29:00;21.85;;;7.47;;
66270;SDS011;53063;39.614;8.814;2023-01-01T05:31:27;24.63;;;7.38;;
66270;SDS011;53063;39.614;8.814;2023-01-01T05:33:55;18.08;;;7.30;;
66270;SDS011;53063;39.614;8.814;2023-01-01T05:36:22;18.27;;;7.00;;
66270;SDS011;53063;39.614;8.814;2023-01-01T05:38:50;21.42;;;7.53;;
66270;SDS011;53063;39.614;8.814;2023-01-01T05:41:17;17.40;;;6.88;;
66270;SDS011;53063;39.614;8.814;2023-01-01T05:43:44;19.52;;;6.97;;
66270;SDS011;53063;39.614;8.814;2023-01-01T05:46:11;13.82;;;6.55;;
66270;SDS011;53063;39.614;8.814;2023-01-01T05:48:39;12.38;;;5.78;;
66270;SDS011;53063;39.614;8.814;2023-01-01T05:51:06;13.82;;;5.80;;
66270;SDS011;53063;39.614;8.814;2023-01-01T05:53:36;16.52;;;6.57;;
66270;SDS011;53063;39.614;8.814;2023-01-01T05:56:02;13.18;;;6.80;;
66270;SDS011;53063;39.614;8.814;2023-01-01T05:58:29;15.20;;;5.97;;
66270;SDS011;53063;39.614;8.814;2023-01-01T06:01:04;11.60;;;5.70;;
66270;SDS011;53063;39.614;8.814;2023-01-01T06:03:33;12.90;;;5.90;;
66270;SDS011;53063;39.614;8.814;2023-01-01T06:06:06;12.10;;;5.45;;
66270;SDS011;53063;39.614;8.814;2023-01-01T06:08:34;12.88;;;6.60;;
66270;SDS011;53063;39.614;8.814;2023-01-01T06:11:01;13.55;;;6.70;;
66270;SDS011;53063;39.614;8.814;2023-01-01T06:13:29;13.73;;;6.65;;
66270;SDS011;53063;39.614;8.814;2023-01-01T06:15:56;20.67;;;7.38;;
66270;SDS011;53063;39.614;8.814;2023-01-01T06:18:23;15.57;;;6.10;;
66270;SDS011;53063;39.614;8.814;2023-01-01T06:20:50;13.68;;;6.22;;
66270;SDS011;53063;39.614;8.814;2023-01-01T06:23:16;15.15;;;6.50;;
66270;SDS011;53063;39.614;8.814;2023-01-01T06:25:42;15.20;;;6.85;;
66270;SDS011;53063;39.614;8.814;2023-01-01T06:28:08;19.02;;;7.20;;
66270;SDS011;53063;39.614;8.814;2023-01-01T06:30:34;16.17;;;7.22;;
66270;SDS011;53063;39.614;8.814;2023-01-01T06:33:01;14.18;;;6.60;;
66270;SDS011;53063;39.614;8.814;2023-01-01T06:35:28;18.90;;;6.80;;
66270;SDS011;53063;39.614;8.814;2023-01-01T06:37:54;13.52;;;6.70;;
66270;SDS011;53063;39.614;8.814;2023-01-01T06:40:20;14.45;;;6.47;;
66270;SDS011;53063;39.614;8.814;2023-01-01T06:42:46;16.02;;;7.13;;
66270;SDS011;53063;39.614;8.814;2023-01-01T06:45:11;16.45;;;6.10;;
66270;SDS011;53063;39.614;8.814;2023-01-01T06:47:37;13.63;;;6.68;;
66270;SDS011;53063;39.614;8.814;2023-01-01T06:50:04;19.38;;;6.45;;
66270;SDS011;53063;39.614;8.814;2023-01-01T06:52:31;16.77;;;6.72;;
66270;SDS011;53063;39.614;8.814;2023-01-01T06:54:57;12.70;;;6.75;;
66270;SDS011;53063;39.614;8.814;2023-01-01T06:57:23;18.08;;;6.60;;
66270;SDS011;53063;39.614;8.814;2023-01-01T06:59:49;14.15;;;6.43;;
66270;SDS011;53063;39.614;8.814;2023-01-01T07:02:15;16.35;;;6.35;;
66270;SDS011;53063;39.614;8.814;2023-01-01T07:04:41;21.15;;;8.30;;
66270;SDS011;53063;39.614;8.814;2023-01-01T07:07:06;20.42;;;7.55;;
66270;SDS011;53063;39.614;8.814;2023-01-01T07:09:32;18.38;;;7.43;;
66270;SDS011;53063;39.614;8.814;2023-01-01T07:11:58;14.40;;;7.53;;
66270;SDS011;53063;39.614;8.814;2023-01-01T07:14:24;23.02;;;8.50;;
66270;SDS011;53063;39.614;8.814;2023-01-01T07:16:50;16.58;;;7.00;;
66270;SDS011;53063;39.614;8.814;2023-01-01T07:19:16;20.63;;;7.00;;
66270;SDS011;53063;39.614;8.814;2023-01-01T07:21:43;26.15;;;9.65;;
66270;SDS011;53063;39.614;8.814;2023-01-01T07:24:19;23.50;;;9.75;;
66270;SDS011;53063;39.614;8.814;2023-01-01T07:26:45;28.35;;;9.35;;
66270;SDS011;53063;39.614;8.814;2023-01-01T07:29:11;28.05;;;12.00;;
66270;SDS011;53063;39.614;8.814;2023-01-01T07:31:38;25.25;;;10.52;;
66270;SDS011;53063;39.614;8.814;2023-01-01T07:34:05;21.17;;;9.50;;
66270;SDS011;53063;39.614;8.814;2023-01-01T07:36:32;27.75;;;10.27;;
66270;SDS011;53063;39.614;8.814;2023-01-01T07:38:58;36.67;;;16.48;;
66270;SDS011;53063;39.614;8.814;2023-01-01T07:41:24;25.00;;;10.18;;
66270;SDS011;53063;39.614;8.814;2023-01-01T07:43:50;43.75;;;25.55;;
66270;SDS011;53063;39.614;8.814;2023-01-01T07:46:16;26.75;;;12.05;;
66270;SDS011;53063;39.614;8.814;2023-01-01T07:48:43;23.13;;;10.55;;
66270;SDS011;53063;39.614;8.814;2023-01-01T07:51:09;27.48;;;11.23;;
66270;SDS011;53063;39.614;8.814;2023-01-01T07:53:35;29.58;;;14.63;;
66270;SDS011;53063;39.614;8.814;2023-01-01T07:56:01;28.05;;;13.00;;
66270;SDS011;53063;39.614;8.814;2023-01-01T07:58:27;26.23;;;11.25;;
66270;SDS011;53063;39.614;8.814;2023-01-01T08:00:53;81.97;;;40.28;;
66270;SDS011;53063;39.614;8.814;2023-01-01T08:03:19;38.17;;;18.38;;
66270;SDS011;53063;39.614;8.814;2023-01-01T08:05:44;26.33;;;11.52;;
66270;SDS011;53063;39.614;8.814;2023-01-01T08:08:11;32.50;;;14.10;;
66270;SDS011;53063;39.614;8.814;2023-01-01T08:10:36;26.92;;;13.23;;
66270;SDS011;53063;39.614;8.814;2023-01-01T08:13:03;25.33;;;10.55;;
66270;SDS011;53063;39.614;8.814;2023-01-01T08:15:30;23.45;;;12.57;;
66270;SDS011;53063;39.614;8.814;2023-01-01T08:17:57;28.85;;;11.95;;
66270;SDS011;53063;39.614;8.814;2023-01-01T08:20:24;28.48;;;12.88;;
66270;SDS011;53063;39.614;8.814;2023-01-01T08:22:50;27.38;;;13.02;;
66270;SDS011;53063;39.614;8.814;2023-01-01T08:25:16;27.55;;;14.85;;
66270;SDS011;53063;39.614;8.814;2023-01-01T08:27:42;27.20;;;12.65;;
66270;SDS011;53063;39.614;8.814;2023-01-01T08:30:10;22.17;;;9.50;;
66270;SDS011;53063;39.614;8.814;2023-01-01T08:32:37;19.33;;;8.68;;
66270;SDS011;53063;39.614;8.814;2023-01-01T08:35:03;20.40;;;7.45;;
66270;SDS011;53063;39.614;8.814;2023-01-01T08:37:30;22.15;;;8.00;;
66270;SDS011;53063;39.614;8.814;2023-01-01T08:39:56;22.27;;;9.35;;
66270;SDS011;53063;39.614;8.814;2023-01-01T08:42:24;20.30;;;8.82;;
66270;SDS011;53063;39.614;8.814;2023-01-01T08:44:50;25.42;;;9.38;;
66270;SDS011;53063;39.614;8.814;2023-01-01T08:47:17;17.33;;;8.52;;
66270;SDS011;53063;39.614;8.814;2023-01-01T08:49:44;19.80;;;7.75;;
66270;SDS011;53063;39.614;8.814;2023-01-01T08:52:10;15.48;;;6.63;;
66270;SDS011;53063;39.614;8.814;2023-01-01T08:54:36;17.55;;;6.05;;
66270;SDS011;53063;39.614;8.814;2023-01-01T08:57:02;17.38;;;7.20;;
66270;SDS011;53063;39.614;8.814;2023-01-01T08:59:28;15.52;;;7.00;;
66270;SDS011;53063;39.614;8.814;2023-01-01T09:01:53;20.23;;;7.72;;
66270;SDS011;53063;39.614;8.814;2023-01-01T09:04:19;17.20;;;6.60;;
66270;SDS011;53063;39.614;8.814;2023-01-01T09:06:45;15.10;;;6.18;;
66270;SDS011;53063;39.614;8.814;2023-01-01T09:09:11;14.50;;;6.60;;
66270;SDS011;53063;39.614;8.814;2023-01-01T09:11:37;15.50;;;6.57;;
66270;SDS011;53063;39.614;8.814;2023-01-01T09:14:03;15.40;;;7.00;;
66270;SDS011;53063;39.614;8.814;2023-01-01T09:16:29;19.33;;;7.18;;
66270;SDS011;53063;39.614;8.814;2023-01-01T09:18:55;14.57;;;6.13;;
66270;SDS011;53063;39.614;8.814;2023-01-01T09:21:21;16.17;;;6.38;;
66270;SDS011;53063;39.614;8.814;2023-01-01T09:23:47;17.10;;;7.07;;
66270;SDS011;53063;39.614;8.814;2023-01-01T09:26:12;32.58;;;8.65;;
66270;SDS011;53063;39.614;8.814;2023-01-01T09:28:38;25.02;;;8.98;;
66270;SDS011;53063;39.614;8.814;2023-01-01T09:31:04;19.00;;;7.65;;
66270;SDS011;53063;39.614;8.814;2023-01-01T09:33:31;22.05;;;8.45;;
66270;SDS011;53063;39.614;8.814;2023-01-01T09:38:38;10.07;;;5.15;;
66270;SDS011;53063;39.614;8.814;2023-01-01T09:41:17;18.25;;;7.10;;
66270;SDS011;53063;39.614;8.814;2023-01-01T09:46:50;28.73;;;12.63;;
66270;SDS011;53063;39.614;8.814;2023-01-01T09:49:22;17.55;;;8.13;;
66270;SDS011;53063;39.614;8.814;2023-01-01T09:52:00;15.38;;;7.25;;
66270;SDS011;53063;39.614;8.814;2023-01-01T09:54:39;19.63;;;7.97;;
66270;SDS011;53063;39.614;8.814;2023-01-01T09:57:27;18.27;;;8.32;;
66270;SDS011;53063;39.614;8.814;2023-01-01T09:59:55;24.77;;;10.20;;
66270;SDS011;53063;39.614;8.814;2023-01-01T10:10:28;14.18;;;4.65;;
66270;SDS011;53063;39.614;8.814;2023-01-01T10:15:55;46.53;;;23.80;;
66270;SDS011;53063;39.614;8.814;2023-01-01T10:18:27;16.58;;;9.25;;
66270;SDS011;53063;39.614;8.814;2023-01-01T10:21:02;20.30;;;9.63;;
66270;SDS011;53063;39.614;8.814;2023-01-01T10:23:41;12.75;;;8.77;;
66270;SDS011;53063;39.614;8.814;2023-01-01T10:26:15;14.50;;;7.57;;
66270;SDS011;53063;39.614;8.814;2023-01-01T10:28:48;14.30;;;7.18;;
66270;SDS011;53063;39.614;8.814;2023-01-01T10:33:50;16.00;;;6.63;;
66270;SDS011;53063;39.614;8.814;2023-01-01T10:36:16;11.82;;;4.88;;
66270;SDS011;53063;39.614;8.814;2023-01-01T10:38:44;14.40;;;4.35;;
66270;SDS011;53063;39.614;8.814;2023-01-01T10:41:12;10.20;;;5.07;;
66270;SDS011;53063;39.614;8.814;2023-01-01T10:43:38;14.43;;;5.43;;
66270;SDS011;53063;39.614;8.814;2023-01-01T10:46:04;18.70;;;8.25;;
66270;SDS011;53063;39.614;8.814;2023-01-01T10:48:32;18.70;;;8.98;;
66270;SDS011;53063;39.614;8.814;2023-01-01T10:51:04;17.42;;;7.47;;
66270;SDS011;53063;39.614;8.814;2023-01-01T10:56:18;14.13;;;6.38;;
66270;SDS011;53063;39.614;8.814;2023-01-01T10:58:50;30.25;;;13.38;;
66270;SDS011;53063;39.614;8.814;2023-01-01T11:01:26;18.73;;;7.78;;
66270;SDS011;53063;39.614;8.814;2023-01-01T11:06:32;24.90;;;9.45;;
66270;SDS011;53063;39.614;8.814;2023-01-01T11:09:00;21.98;;;9.18;;
66270;SDS011;53063;39.614;8.814;2023-01-01T11:12:18;44.05;;;16.73;;
66270;SDS011;53063;39.614;8.814;2023-01-01T11:15:02;23.35;;;10.10;;
66270;SDS011;53063;39.614;8.814;2023-01-01T11:17:30;15.25;;;6.07;;
66270;SDS011;53063;39.614;8.814;2023-01-01T11:19:59;21.67;;;8.15;;
66270;SDS011;53063;39.614;8.814;2023-01-01T11:22:34;19.15;;;6.57;;
66270;SDS011;53063;39.614;8.814;2023-01-01T11:25:19;14.52;;;8.02;;
66270;SDS011;53063;39.614;8.814;2023-01-01T11:27:49;14.05;;;5.35;;
66270;SDS011;53063;39.614;8.814;2023-01-01T11:30:27;14.45;;;6.50;;
66270;SDS011;53063;39.614;8.814;2023-01-01T11:32:57;12.70;;;4.60;;
66270;SDS011;53063;39.614;8.814;2023-01-01T11:35:26;15.88;;;5.95;;
66270;SDS011;53063;39.614;8.814;2023-01-01T11:37:57;15.65;;;6.25;;
66270;SDS011;53063;39.614;8.814;2023-01-01T11:43:03;12.57;;;4.75;;
66270;SDS011;53063;39.614;8.814;2023-01-01T11:45:32;21.92;;;9.23;;
66270;SDS011;53063;39.614;8.814;2023-01-01T11:48:04;17.90;;;8.95;;
66270;SDS011;53063;39.614;8.814;2023-01-01T11:50:38;12.93;;;6.75;;
66270;SDS011;53063;39.614;8.814;2023-01-01T12:01:02;23.83;;;11.20;;
66270;SDS011;53063;39.614;8.814;2023-01-01T12:06:31;23.85;;;9.73;;
66270;SDS011;53063;39.614;8.814;2023-01-01T12:12:47;19.63;;;8.50;;
66270;SDS011;53063;39.614;8.814;2023-01-01T12:17:45;25.92;;;7.60;;
66270;SDS011;53063;39.614;8.814;2023-01-01T12:20:30;16.23;;;5.75;;
66270;SDS011;53063;39.614;8.814;2023-01-01T12:22:59;16.50;;;6.97;;
66270;SDS011;53063;39.614;8.814;2023-01-01T12:25:49;14.95;;;6.55;;
66270;SDS011;53063;39.614;8.814;2023-01-01T12:50:25;17.52;;;6.57;;
66270;SDS011;53063;39.614;8.814;2023-01-01T12:53:11;16.65;;;5.20;;
66270;SDS011;53063;39.614;8.814;2023-01-01T12:55:56;17.40;;;6.32;;
66270;SDS011;53063;39.614;8.814;2023-01-01T12:58:31;12.55;;;5.60;;
66270;SDS011;53063;39.614;8.814;2023-01-01T13:01:06;19.33;;;5.47;;
66270;SDS011;53063;39.614;8.814;2023-01-01T13:03:50;13.40;;;4.28;;
66270;SDS011;53063;39.614;8.814;2023-01-01T13:06:25;10.55;;;4.03;;
66270;SDS011;53063;39.614;8.814;2023-01-01T13:09:13;15.43;;;4.00;;
66270;SDS011;53063;39.614;8.814;2023-01-01T13:11:39;8.25;;;3.70;;
66270;SDS011;53063;39.614;8.814;2023-01-01T13:14:06;11.80;;;3.60;;
66270;SDS011;53063;39.614;8.814;2023-01-01T13:16:43;8.82;;;3.35;;
66270;SDS011;53063;39.614;8.814;2023-01-01T13:19:25;11.02;;;4.18;;
66270;SDS011;53063;39.614;8.814;2023-01-01T13:22:44;10.02;;;3.90;;
66270;SDS011;53063;39.614;8.814;2023-01-01T13:31:06;13.27;;;6.32;;
66270;SDS011;53063;39.614;8.814;2023-01-01T13:33:18;11.68;;;5.05;;
66270;SDS011;53063;39.614;8.814;2023-01-01T13:38:49;11.60;;;4.50;;
66270;SDS011;53063;39.614;8.814;2023-01-01T13:41:31;9.13;;;4.03;;
66270;SDS011;53063;39.614;8.814;2023-01-01T14:02:47;11.30;;;3.30;;
66270;SDS011;53063;39.614;8.814;2023-01-01T14:05:24;7.13;;;3.25;;
66270;SDS011;53063;39.614;8.814;2023-01-01T14:07:53;5.53;;;2.80;;
66270;SDS011;53063;39.614;8.814;2023-01-01T14:12:50;11.25;;;3.15;;
66270;SDS011;53063;39.614;8.814;2023-01-01T14:17:52;7.40;;;2.60;;
66270;SDS011;53063;39.614;8.814;2023-01-01T14:20:21;10.27;;;3.83;;
66270;SDS011;53063;39.614;8.814;2023-01-01T14:22:52;7.05;;;2.97;;
66270;SDS011;53063;39.614;8.814;2023-01-01T14:25:27;8.77;;;2.63;;
66270;SDS011;53063;39.614;8.814;2023-01-01T14:27:54;6.88;;;2.90;;
66270;SDS011;53063;39.614;8.814;2023-01-01T14:30:22;5.20;;;2.75;;
66270;SDS011;53063;39.614;8.814;2023-01-01T14:32:59;11.15;;;4.38;;
66270;SDS011;53063;39.614;8.814;2023-01-01T14:35:26;9.23;;;3.85;;
66270;SDS011;53063;39.614;8.814;2023-01-01T14:37:53;9.93;;;3.78;;
66270;SDS011;53063;39.614;8.814;2023-01-01T14:40:24;7.70;;;3.75;;
66270;SDS011;53063;39.614;8.814;2023-01-01T14:45:37;10.15;;;5.45;;
66270;SDS011;53063;39.614;8.814;2023-01-01T14:48:14;17.92;;;7.90;;
66270;SDS011;53063;39.614;8.814;2023-01-01T14:50:45;20.08;;;8.38;;
66270;SDS011;53063;39.614;8.814;2023-01-01T14:53:15;17.42;;;6.75;;
66270;SDS011;53063;39.614;8.814;2023-01-01T14:55:46;18.27;;;7.65;;
66270;SDS011;53063;39.614;8.814;2023-01-01T15:00:47;9.50;;;5.53;;
66270;SDS011;53063;39.614;8.814;2023-01-01T15:03:15;10.70;;;4.85;;
66270;SDS011;53063;39.614;8.814;2023-01-01T15:06:31;11.97;;;5.17;;
66270;SDS011;53063;39.614;8.814;2023-01-01T15:08:40;12.95;;;5.85;;
66270;SDS011;53063;39.614;8.814;2023-01-01T15:11:06;11.63;;;5.53;;
66270;SDS011;53063;39.614;8.814;2023-01-01T15:13:32;17.42;;;5.07;;
66270;SDS011;53063;39.614;8.814;2023-01-01T15:16:14;16.60;;;7.40;;
66270;SDS011;53063;39.614;8.814;2023-01-01T15:18:45;13.75;;;6.80;;
66270;SDS011;53063;39.614;8.814;2023-01-01T15:23:53;8.57;;;4.45;;
66270;SDS011;53063;39.614;8.814;2023-01-01T15:26:36;22.15;;;9.65;;
66270;SDS011;53063;39.614;8.814;2023-01-01T15:29:09;12.27;;;4.18;;
66270;SDS011;53063;39.614;8.814;2023-01-01T15:31:40;9.88;;;4.50;;
66270;SDS011;53063;39.614;8.814;2023-01-01T15:37:13;10.57;;;4.53;;
66270;SDS011;53063;39.614;8.814;2023-01-01T15:40:46;14.68;;;5.10;;
66270;SDS011;53063;39.614;8.814;2023-01-01T15:47:53;15.52;;;6.15;;
66270;SDS011;53063;39.614;8.814;2023-01-01T15:50:54;10.70;;;5.22;;
66270;SDS011;53063;39.614;8.814;2023-01-01T15:53:23;14.70;;;6.68;;
66270;SDS011;53063;39.614;8.814;2023-01-01T16:03:43;13.02;;;5.82;;
66270;SDS011;53063;39.614;8.814;2023-01-01T16:06:15;19.35;;;7.60;;
66270;SDS011;53063;39.614;8.814;2023-01-01T16:08:42;15.15;;;7.88;;
66270;SDS011;53063;39.614;8.814;2023-01-01T16:11:08;14.10;;;6.13;;
66270;SDS011;53063;39.614;8.814;2023-01-01T16:13:34;12.82;;;5.85;;
66270;SDS011;53063;39.614;8.814;2023-01-01T16:16:00;16.48;;;7.80;;
66270;SDS011;53063;39.614;8.814;2023-01-01T16:18:29;17.20;;;7.20;;
66270;SDS011;53063;39.614;8.814;2023-01-01T16:20:57;16.80;;;7.80;;
66270;SDS011;53063;39.614;8.814;2023-01-01T16:23:24;17.38;;;9.25;;
66270;SDS011;53063;39.614;8.814;2023-01-01T16:25:50;25.85;;;13.48;;
66270;SDS011;53063;39.614;8.814;2023-01-01T16:28:16;34.55;;;16.63;;
66270;SDS011;53063;39.614;8.814;2023-01-01T16:30:42;42.20;;;22.42;;
66270;SDS011;53063;39.614;8.814;2023-01-01T16:33:11;30.98;;;15.27;;
66270;SDS011;53063;39.614;8.814;2023-01-01T16:35:39;33.20;;;16.70;;
66270;SDS011;53063;39.614;8.814;2023-01-01T16:38:05;43.75;;;21.65;;
66270;SDS011;53063;39.614;8.814;2023-01-01T16:40:32;163.65;;;86.95;;
66270;SDS011;53063;39.614;8.814;2023-01-01T16:42:58;170.45;;;93.53;;
66270;SDS011;53063;39.614;8.814;2023-01-01T16:45:24;164.20;;;87.35;;
66270;SDS011;53063;39.614;8.814;2023-01-01T16:47:50;165.27;;;93.85;;
66270;SDS011;53063;39.614;8.814;2023-01-01T16:50:16;196.68;;;101.28;;
66270;SDS011;53063;39.614;8.814;2023-01-01T16:52:42;148.70;;;84.20;;
66270;SDS011;53063;39.614;8.814;2023-01-01T16:55:08;92.38;;;55.55;;
66270;SDS011;53063;39.614;8.814;2023-01-01T16:57:34;40.92;;;23.92;;
66270;SDS011;53063;39.614;8.814;2023-01-01T17:00:00;47.17;;;27.90;;
66270;SDS011;53063;39.614;8.814;2023-01-01T17:02:27;65.05;;;33.63;;
66270;SDS011;53063;39.614;8.814;2023-01-01T17:04:54;56.25;;;29.42;;
66270;SDS011;53063;39.614;8.814;2023-01-01T17:07:20;52.22;;;29.33;;
66270;SDS011;53063;39.614;8.814;2023-01-01T17:09:46;47.90;;;26.02;;
66270;SDS011;53063;39.614;8.814;2023-01-01T17:12:12;42.13;;;22.13;;
66270;SDS011;53063;39.614;8.814;2023-01-01T17:14:38;47.17;;;26.25;;
66270;SDS011;53063;39.614;8.814;2023-01-01T17:17:03;48.75;;;27.13;;
66270;SDS011;53063;39.614;8.814;2023-01-01T17:19:29;50.42;;;27.20;;
66270;SDS011;53063;39.614;8.814;2023-01-01T17:21:55;41.50;;;23.65;;
66270;SDS011;53063;39.614;8.814;2023-01-01T17:24:21;43.47;;;23.67;;
66270;SDS011;53063;39.614;8.814;2023-01-01T17:26:50;45.10;;;26.17;;
66270;SDS011;53063;39.614;8.814;2023-01-01T17:29:18;44.47;;;22.50;;
66270;SDS011;53063;39.614;8.814;2023-01-01T17:31:47;40.35;;;22.88;;